sensor_id;sensor_type;location;lat;lon;timestamp;P1;durP1;ratioP1;P2;durP2;ratioP2
54977;SDS011;40873;47.522;19.106;2023-05-17T00:00:57;20.00;;;10.30;;
54977;SDS011;40873;47.522;19.106;2023-05-17T00:03:24;14.88;;;9.10;;
54977;SDS011;40873;47.522;19.106;2023-05-17T00:05:51;12.90;;;9.73;;
54977;SDS011;40873;47.522;19.106;2023-05-17T00:08:18;14.48;;;8.75;;
54977;SDS011;40873;47.522;19.106;2023-05-17T00:10:47;20.40;;;11.52;;
54977;SDS011;40873;47.522;19.106;2023-05-17T00:13:14;17.00;;;10.63;;
54977;SDS011;40873;47.522;19.106;2023-05-17T00:15:41;15.77;;;10.43;;
54977;SDS011;40873;47.522;19.106;2023-05-17T00:18:09;17.98;;;10.18;;
54977;SDS011;40873;47.522;19.106;2023-05-17T00:20:37;17.38;;;10.20;;
54977;SDS011;40873;47.522;19.106;2023-05-17T00:23:07;18.33;;;10.20;;
54977;SDS011;40873;47.522;19.106;2023-05-17T00:25:34;23.30;;;12.00;;
54977;SDS011;40873;47.522;19.106;2023-05-17T00:28:01;21.08;;;11.68;;
54977;SDS011;40873;47.522;19.106;2023-05-17T00:30:29;16.80;;;10.27;;
54977;SDS011;40873;47.522;19.106;2023-05-17T00:32:56;18.92;;;11.23;;
54977;SDS011;40873;47.522;19.106;2023-05-17T00:35:23;21.50;;;12.77;;
54977;SDS011;40873;47.522;19.106;2023-05-17T00:37:51;28.80;;;12.90;;
54977;SDS011;40873;47.522;19.106;2023-05-17T00:40:19;17.20;;;11.05;;
54977;SDS011;40873;47.522;19.106;2023-05-17T00:42:48;15.25;;;10.23;;
54977;SDS011;40873;47.522;19.106;2023-05-17T00:45:16;16.48;;;10.13;;
54977;SDS011;40873;47.522;19.106;2023-05-17T00:47:45;19.10;;;10.25;;
54977;SDS011;40873;47.522;19.106;2023-05-17T00:50:15;19.30;;;11.02;;
54977;SDS011;40873;47.522;19.106;2023-05-17T00:52:42;18.15;;;11.55;;
54977;SDS011;40873;47.522;19.106;2023-05-17T00:55:10;24.17;;;10.52;;
54977;SDS011;40873;47.522;19.106;2023-05-17T00:57:37;22.30;;;10.02;;
54977;SDS011;40873;47.522;19.106;2023-05-17T01:00:04;13.93;;;8.98;;
54977;SDS011;40873;47.522;19.106;2023-05-17T01:02:34;15.20;;;9.63;;
54977;SDS011;40873;47.522;19.106;2023-05-17T01:05:02;14.70;;;9.00;;
54977;SDS011;40873;47.522;19.106;2023-05-17T01:07:29;17.80;;;9.48;;
54977;SDS011;40873;47.522;19.106;2023-05-17T01:09:58;16.80;;;9.00;;
54977;SDS011;40873;47.522;19.106;2023-05-17T01:20:44;13.95;;;9.75;;
54977;SDS011;40873;47.522;19.106;2023-05-17T01:28:27;16.42;;;9.55;;
54977;SDS011;40873;47.522;19.106;2023-05-17T01:30:57;18.70;;;9.73;;
54977;SDS011;40873;47.522;19.106;2023-05-17T01:33:26;19.70;;;9.77;;
54977;SDS011;40873;47.522;19.106;2023-05-17T01:35:54;17.10;;;9.15;;
54977;SDS011;40873;47.522;19.106;2023-05-17T01:38:21;16.65;;;10.32;;
54977;SDS011;40873;47.522;19.106;2023-05-17T01:40:54;18.80;;;10.65;;
54977;SDS011;40873;47.522;19.106;2023-05-17T01:49:02;16.63;;;9.85;;
54977;SDS011;40873;47.522;19.106;2023-05-17T01:56:43;22.88;;;11.32;;
54977;SDS011;40873;47.522;19.106;2023-05-17T01:59:21;20.30;;;10.40;;
54977;SDS011;40873;47.522;19.106;2023-05-17T02:01:57;21.42;;;10.05;;
54977;SDS011;40873;47.522;19.106;2023-05-17T02:04:31;21.50;;;9.43;;
54977;SDS011;40873;47.522;19.106;2023-05-17T02:06:59;19.35;;;9.52;;
54977;SDS011;40873;47.522;19.106;2023-05-17T02:09:31;19.92;;;10.43;;
54977;SDS011;40873;47.522;19.106;2023-05-17T02:12:02;15.95;;;8.82;;
54977;SDS011;40873;47.522;19.106;2023-05-17T02:14:30;15.27;;;9.27;;
54977;SDS011;40873;47.522;19.106;2023-05-17T02:17:00;15.45;;;9.55;;
54977;SDS011;40873;47.522;19.106;2023-05-17T02:19:27;15.60;;;8.73;;
54977;SDS011;40873;47.522;19.106;2023-05-17T02:21:57;17.10;;;9.38;;
54977;SDS011;40873;47.522;19.106;2023-05-17T02:24:24;18.35;;;8.50;;
54977;SDS011;40873;47.522;19.106;2023-05-17T02:26:52;14.57;;;8.75;;
54977;SDS011;40873;47.522;19.106;2023-05-17T02:29:19;14.57;;;9.02;;
54977;SDS011;40873;47.522;19.106;2023-05-17T02:31:47;12.90;;;8.88;;
54977;SDS011;40873;47.522;19.106;2023-05-17T02:34:14;23.45;;;9.48;;
54977;SDS011;40873;47.522;19.106;2023-05-17T02:36:42;14.80;;;9.20;;
54977;SDS011;40873;47.522;19.106;2023-05-17T02:39:10;16.65;;;9.27;;
54977;SDS011;40873;47.522;19.106;2023-05-17T02:41:37;19.48;;;9.32;;
54977;SDS011;40873;47.522;19.106;2023-05-17T02:44:04;20.20;;;9.75;;
54977;SDS011;40873;47.522;19.106;2023-05-17T02:46:31;17.50;;;9.48;;
54977;SDS011;40873;47.522;19.106;2023-05-17T02:48:58;20.17;;;11.20;;
54977;SDS011;40873;47.522;19.106;2023-05-17T02:51:26;15.02;;;9.63;;
54977;SDS011;40873;47.522;19.106;2023-05-17T02:53:53;18.73;;;10.07;;
54977;SDS011;40873;47.522;19.106;2023-05-17T02:56:20;19.95;;;9.15;;
54977;SDS011;40873;47.522;19.106;2023-05-17T02:58:47;23.67;;;9.52;;
54977;SDS011;40873;47.522;19.106;2023-05-17T03:01:14;18.23;;;9.30;;
54977;SDS011;40873;47.522;19.106;2023-05-17T03:03:41;20.20;;;9.98;;
54977;SDS011;40873;47.522;19.106;2023-05-17T03:06:09;19.73;;;9.52;;
54977;SDS011;40873;47.522;19.106;2023-05-17T03:08:36;18.70;;;9.65;;
54977;SDS011;40873;47.522;19.106;2023-05-17T03:11:04;17.42;;;9.35;;
54977;SDS011;40873;47.522;19.106;2023-05-17T03:13:31;19.23;;;9.77;;
54977;SDS011;40873;47.522;19.106;2023-05-17T03:15:59;19.15;;;10.30;;
54977;SDS011;40873;47.522;19.106;2023-05-17T03:18:26;17.10;;;9.77;;
54977;SDS011;40873;47.522;19.106;2023-05-17T03:20:53;29.10;;;11.40;;
54977;SDS011;40873;47.522;19.106;2023-05-17T03:23:20;20.67;;;9.68;;
54977;SDS011;40873;47.522;19.106;2023-05-17T03:25:50;14.20;;;9.48;;
54977;SDS011;40873;47.522;19.106;2023-05-17T03:28:17;21.70;;;10.88;;
54977;SDS011;40873;47.522;19.106;2023-05-17T03:30:44;18.23;;;10.25;;
54977;SDS011;40873;47.522;19.106;2023-05-17T03:33:13;16.67;;;9.55;;
54977;SDS011;40873;47.522;19.106;2023-05-17T03:35:48;19.73;;;9.57;;
54977;SDS011;40873;47.522;19.106;2023-05-17T03:38:15;21.63;;;10.77;;
54977;SDS011;40873;47.522;19.106;2023-05-17T03:40:42;17.15;;;10.20;;
54977;SDS011;40873;47.522;19.106;2023-05-17T03:43:12;16.75;;;10.38;;
54977;SDS011;40873;47.522;19.106;2023-05-17T03:45:42;20.13;;;9.88;;
54977;SDS011;40873;47.522;19.106;2023-05-17T03:48:10;16.60;;;8.93;;
54977;SDS011;40873;47.522;19.106;2023-05-17T03:50:37;14.95;;;9.80;;
54977;SDS011;40873;47.522;19.106;2023-05-17T03:53:06;17.17;;;9.60;;
54977;SDS011;40873;47.522;19.106;2023-05-17T03:55:33;19.90;;;10.20;;
54977;SDS011;40873;47.522;19.106;2023-05-17T03:58:00;18.30;;;10.02;;
54977;SDS011;40873;47.522;19.106;2023-05-17T04:00:28;18.27;;;10.77;;
54977;SDS011;40873;47.522;19.106;2023-05-17T04:02:58;19.77;;;9.80;;
54977;SDS011;40873;47.522;19.106;2023-05-17T04:05:30;14.48;;;9.65;;
54977;SDS011;40873;47.522;19.106;2023-05-17T04:07:58;21.30;;;11.20;;
54977;SDS011;40873;47.522;19.106;2023-05-17T04:10:25;16.77;;;10.50;;
54977;SDS011;40873;47.522;19.106;2023-05-17T04:12:58;16.77;;;9.63;;
54977;SDS011;40873;47.522;19.106;2023-05-17T04:15:25;23.48;;;9.60;;
54977;SDS011;40873;47.522;19.106;2023-05-17T04:17:53;17.83;;;9.25;;
54977;SDS011;40873;47.522;19.106;2023-05-17T04:20:21;16.45;;;10.02;;
54977;SDS011;40873;47.522;19.106;2023-05-17T04:22:47;13.88;;;9.48;;
54977;SDS011;40873;47.522;19.106;2023-05-17T04:25:15;17.08;;;9.00;;
54977;SDS011;40873;47.522;19.106;2023-05-17T04:27:43;14.95;;;9.48;;
54977;SDS011;40873;47.522;19.106;2023-05-17T04:30:13;19.02;;;9.63;;
54977;SDS011;40873;47.522;19.106;2023-05-17T04:32:40;17.27;;;10.48;;
54977;SDS011;40873;47.522;19.106;2023-05-17T04:35:09;18.98;;;10.95;;
54977;SDS011;40873;47.522;19.106;2023-05-17T04:37:36;22.60;;;12.38;;
54977;SDS011;40873;47.522;19.106;2023-05-17T04:40:08;21.58;;;10.50;;
54977;SDS011;40873;47.522;19.106;2023-05-17T04:42:36;19.88;;;10.82;;
54977;SDS011;40873;47.522;19.106;2023-05-17T04:45:05;16.90;;;10.27;;
54977;SDS011;40873;47.522;19.106;2023-05-17T04:47:36;17.20;;;9.95;;
54977;SDS011;40873;47.522;19.106;2023-05-17T04:50:04;21.95;;;10.45;;
54977;SDS011;40873;47.522;19.106;2023-05-17T04:52:31;19.35;;;11.75;;
54977;SDS011;40873;47.522;19.106;2023-05-17T04:54:58;43.88;;;12.15;;
54977;SDS011;40873;47.522;19.106;2023-05-17T04:57:25;24.10;;;12.23;;
54977;SDS011;40873;47.522;19.106;2023-05-17T04:59:52;20.50;;;12.02;;
54977;SDS011;40873;47.522;19.106;2023-05-17T05:02:19;19.25;;;11.05;;
54977;SDS011;40873;47.522;19.106;2023-05-17T05:04:46;19.60;;;10.15;;
54977;SDS011;40873;47.522;19.106;2023-05-17T05:07:13;19.95;;;11.13;;
54977;SDS011;40873;47.522;19.106;2023-05-17T05:09:41;17.60;;;10.75;;
54977;SDS011;40873;47.522;19.106;2023-05-17T05:12:08;17.45;;;11.43;;
54977;SDS011;40873;47.522;19.106;2023-05-17T05:14:35;18.10;;;10.25;;
54977;SDS011;40873;47.522;19.106;2023-05-17T05:17:05;17.33;;;10.65;;
54977;SDS011;40873;47.522;19.106;2023-05-17T05:19:32;23.80;;;11.25;;
54977;SDS011;40873;47.522;19.106;2023-05-17T05:22:01;24.08;;;11.90;;
54977;SDS011;40873;47.522;19.106;2023-05-17T05:24:29;17.73;;;10.98;;
54977;SDS011;40873;47.522;19.106;2023-05-17T05:26:59;21.27;;;10.55;;
54977;SDS011;40873;47.522;19.106;2023-05-17T05:29:26;16.88;;;10.57;;
54977;SDS011;40873;47.522;19.106;2023-05-17T05:31:53;21.17;;;11.23;;
54977;SDS011;40873;47.522;19.106;2023-05-17T05:34:21;16.33;;;11.07;;
54977;SDS011;40873;47.522;19.106;2023-05-17T05:36:48;21.63;;;10.45;;
54977;SDS011;40873;47.522;19.106;2023-05-17T05:39:15;13.43;;;9.25;;
54977;SDS011;40873;47.522;19.106;2023-05-17T05:41:42;20.77;;;10.02;;
54977;SDS011;40873;47.522;19.106;2023-05-17T05:44:09;20.40;;;10.80;;
54977;SDS011;40873;47.522;19.106;2023-05-17T05:46:36;22.17;;;12.07;;
54977;SDS011;40873;47.522;19.106;2023-05-17T05:49:03;23.40;;;10.68;;
54977;SDS011;40873;47.522;19.106;2023-05-17T05:51:30;18.73;;;10.60;;
54977;SDS011;40873;47.522;19.106;2023-05-17T05:53:59;21.13;;;11.18;;
54977;SDS011;40873;47.522;19.106;2023-05-17T05:56:26;21.10;;;10.70;;
54977;SDS011;40873;47.522;19.106;2023-05-17T05:58:54;16.05;;;10.43;;
54977;SDS011;40873;47.522;19.106;2023-05-17T06:01:23;18.55;;;10.43;;
54977;SDS011;40873;47.522;19.106;2023-05-17T06:03:51;31.83;;;12.82;;
54977;SDS011;40873;47.522;19.106;2023-05-17T06:06:17;15.18;;;9.63;;
54977;SDS011;40873;47.522;19.106;2023-05-17T06:08:47;16.17;;;9.82;;
54977;SDS011;40873;47.522;19.106;2023-05-17T06:11:14;23.00;;;11.50;;
54977;SDS011;40873;47.522;19.106;2023-05-17T06:13:43;24.15;;;12.50;;
54977;SDS011;40873;47.522;19.106;2023-05-17T06:16:11;16.80;;;10.73;;
54977;SDS011;40873;47.522;19.106;2023-05-17T06:18:38;19.02;;;13.13;;
54977;SDS011;40873;47.522;19.106;2023-05-17T06:21:06;26.88;;;13.82;;
54977;SDS011;40873;47.522;19.106;2023-05-17T06:23:34;23.35;;;14.90;;
54977;SDS011;40873;47.522;19.106;2023-05-17T06:26:00;24.10;;;15.10;;
54977;SDS011;40873;47.522;19.106;2023-05-17T06:28:28;23.67;;;14.63;;
54977;SDS011;40873;47.522;19.106;2023-05-17T06:30:55;24.83;;;14.48;;
54977;SDS011;40873;47.522;19.106;2023-05-17T06:33:22;25.13;;;14.50;;
54977;SDS011;40873;47.522;19.106;2023-05-17T06:35:49;23.65;;;15.15;;
54977;SDS011;40873;47.522;19.106;2023-05-17T06:38:23;25.60;;;14.50;;
54977;SDS011;40873;47.522;19.106;2023-05-17T06:40:50;23.67;;;13.80;;
54977;SDS011;40873;47.522;19.106;2023-05-17T06:43:19;22.65;;;13.15;;
54977;SDS011;40873;47.522;19.106;2023-05-17T06:45:46;23.13;;;13.48;;
54977;SDS011;40873;47.522;19.106;2023-05-17T06:48:14;22.92;;;12.48;;
54977;SDS011;40873;47.522;19.106;2023-05-17T06:50:41;19.20;;;10.27;;
54977;SDS011;40873;47.522;19.106;2023-05-17T06:53:11;30.77;;;11.27;;
54977;SDS011;40873;47.522;19.106;2023-05-17T06:55:41;25.27;;;12.63;;
54977;SDS011;40873;47.522;19.106;2023-05-17T06:58:10;18.90;;;10.55;;
54977;SDS011;40873;47.522;19.106;2023-05-17T07:00:36;26.85;;;12.43;;
54977;SDS011;40873;47.522;19.106;2023-05-17T07:03:04;17.00;;;10.50;;
54977;SDS011;40873;47.522;19.106;2023-05-17T07:05:31;22.10;;;11.32;;
54977;SDS011;40873;47.522;19.106;2023-05-17T07:07:59;20.13;;;11.20;;
54977;SDS011;40873;47.522;19.106;2023-05-17T07:10:26;21.38;;;10.75;;
54977;SDS011;40873;47.522;19.106;2023-05-17T07:12:53;18.45;;;10.30;;
54977;SDS011;40873;47.522;19.106;2023-05-17T07:15:21;18.90;;;9.95;;
54977;SDS011;40873;47.522;19.106;2023-05-17T07:17:48;23.33;;;11.48;;
54977;SDS011;40873;47.522;19.106;2023-05-17T07:20:15;17.15;;;9.88;;
54977;SDS011;40873;47.522;19.106;2023-05-17T07:22:42;18.60;;;10.77;;
54977;SDS011;40873;47.522;19.106;2023-05-17T07:25:09;21.08;;;11.07;;
54977;SDS011;40873;47.522;19.106;2023-05-17T07:27:36;22.35;;;13.07;;
54977;SDS011;40873;47.522;19.106;2023-05-17T07:30:03;17.73;;;11.30;;
54977;SDS011;40873;47.522;19.106;2023-05-17T07:32:32;19.65;;;11.40;;
54977;SDS011;40873;47.522;19.106;2023-05-17T07:34:59;23.50;;;11.70;;
54977;SDS011;40873;47.522;19.106;2023-05-17T07:37:28;22.85;;;11.75;;
54977;SDS011;40873;47.522;19.106;2023-05-17T07:39:58;23.88;;;11.52;;
54977;SDS011;40873;47.522;19.106;2023-05-17T07:42:28;23.20;;;11.48;;
54977;SDS011;40873;47.522;19.106;2023-05-17T07:44:55;24.38;;;13.40;;
54977;SDS011;40873;47.522;19.106;2023-05-17T07:47:23;27.90;;;13.43;;
54977;SDS011;40873;47.522;19.106;2023-05-17T07:49:52;27.25;;;11.95;;
54977;SDS011;40873;47.522;19.106;2023-05-17T07:52:19;21.48;;;12.32;;
54977;SDS011;40873;47.522;19.106;2023-05-17T07:54:46;21.23;;;12.23;;
54977;SDS011;40873;47.522;19.106;2023-05-17T07:57:14;22.23;;;13.30;;
54977;SDS011;40873;47.522;19.106;2023-05-17T07:59:41;22.98;;;12.75;;
54977;SDS011;40873;47.522;19.106;2023-05-17T08:02:08;20.98;;;12.07;;
54977;SDS011;40873;47.522;19.106;2023-05-17T08:04:35;28.85;;;12.43;;
54977;SDS011;40873;47.522;19.106;2023-05-17T08:07:02;22.58;;;12.82;;
54977;SDS011;40873;47.522;19.106;2023-05-17T08:09:30;22.38;;;12.48;;
54977;SDS011;40873;47.522;19.106;2023-05-17T08:11:58;23.75;;;11.82;;
54977;SDS011;40873;47.522;19.106;2023-05-17T08:14:24;20.52;;;10.63;;
54977;SDS011;40873;47.522;19.106;2023-05-17T08:16:52;24.85;;;12.38;;
54977;SDS011;40873;47.522;19.106;2023-05-17T08:19:19;28.88;;;12.82;;
54977;SDS011;40873;47.522;19.106;2023-05-17T08:21:47;22.13;;;12.77;;
54977;SDS011;40873;47.522;19.106;2023-05-17T08:24:15;20.88;;;11.57;;
54977;SDS011;40873;47.522;19.106;2023-05-17T08:26:43;21.52;;;11.63;;
54977;SDS011;40873;47.522;19.106;2023-05-17T08:29:10;24.83;;;11.70;;
54977;SDS011;40873;47.522;19.106;2023-05-17T08:31:38;21.63;;;11.57;;
54977;SDS011;40873;47.522;19.106;2023-05-17T08:34:05;21.77;;;11.20;;
54977;SDS011;40873;47.522;19.106;2023-05-17T08:36:32;28.48;;;13.45;;
54977;SDS011;40873;47.522;19.106;2023-05-17T08:38:59;25.80;;;11.45;;
54977;SDS011;40873;47.522;19.106;2023-05-17T08:41:27;19.58;;;12.15;;
54977;SDS011;40873;47.522;19.106;2023-05-17T08:44:01;27.50;;;11.63;;
54977;SDS011;40873;47.522;19.106;2023-05-17T08:46:31;22.80;;;11.50;;
54977;SDS011;40873;47.522;19.106;2023-05-17T08:49:02;24.30;;;11.10;;
54977;SDS011;40873;47.522;19.106;2023-05-17T08:51:32;21.80;;;11.65;;
54977;SDS011;40873;47.522;19.106;2023-05-17T08:54:01;20.05;;;10.90;;
54977;SDS011;40873;47.522;19.106;2023-05-17T08:56:30;21.80;;;10.88;;
54977;SDS011;40873;47.522;19.106;2023-05-17T08:58:58;16.88;;;9.55;;
54977;SDS011;40873;47.522;19.106;2023-05-17T09:01:25;21.05;;;11.23;;
54977;SDS011;40873;47.522;19.106;2023-05-17T09:03:58;20.40;;;10.63;;
54977;SDS011;40873;47.522;19.106;2023-05-17T09:06:26;22.00;;;10.57;;
54977;SDS011;40873;47.522;19.106;2023-05-17T09:08:53;21.13;;;10.43;;
54977;SDS011;40873;47.522;19.106;2023-05-17T09:11:24;19.80;;;10.95;;
54977;SDS011;40873;47.522;19.106;2023-05-17T09:13:56;22.52;;;11.27;;
54977;SDS011;40873;47.522;19.106;2023-05-17T09:16:28;17.52;;;9.68;;
54977;SDS011;40873;47.522;19.106;2023-05-17T09:18:59;19.30;;;10.38;;
54977;SDS011;40873;47.522;19.106;2023-05-17T09:21:28;19.95;;;11.27;;
54977;SDS011;40873;47.522;19.106;2023-05-17T09:23:57;20.70;;;10.88;;
54977;SDS011;40873;47.522;19.106;2023-05-17T09:26:40;20.15;;;9.45;;
54977;SDS011;40873;47.522;19.106;2023-05-17T09:29:09;19.48;;;11.43;;
54977;SDS011;40873;47.522;19.106;2023-05-17T09:31:38;17.92;;;10.68;;
54977;SDS011;40873;47.522;19.106;2023-05-17T09:34:06;17.52;;;9.13;;
54977;SDS011;40873;47.522;19.106;2023-05-17T09:36:35;17.23;;;10.20;;
54977;SDS011;40873;47.522;19.106;2023-05-17T09:39:04;18.60;;;10.30;;
54977;SDS011;40873;47.522;19.106;2023-05-17T09:41:44;18.92;;;9.95;;
54977;SDS011;40873;47.522;19.106;2023-05-17T09:44:16;19.52;;;9.98;;
54977;SDS011;40873;47.522;19.106;2023-05-17T09:46:45;14.02;;;8.95;;
54977;SDS011;40873;47.522;19.106;2023-05-17T09:49:13;14.20;;;9.48;;
54977;SDS011;40873;47.522;19.106;2023-05-17T09:51:42;16.10;;;8.25;;
54977;SDS011;40873;47.522;19.106;2023-05-17T09:54:10;15.82;;;9.02;;
54977;SDS011;40873;47.522;19.106;2023-05-17T09:56:39;15.85;;;9.65;;
54977;SDS011;40873;47.522;19.106;2023-05-17T09:59:13;15.40;;;8.88;;
54977;SDS011;40873;47.522;19.106;2023-05-17T10:01:42;13.90;;;9.57;;
54977;SDS011;40873;47.522;19.106;2023-05-17T10:04:12;20.05;;;9.93;;
54977;SDS011;40873;47.522;19.106;2023-05-17T10:06:40;13.45;;;8.27;;
54977;SDS011;40873;47.522;19.106;2023-05-17T10:09:16;19.88;;;9.77;;
54977;SDS011;40873;47.522;19.106;2023-05-17T10:11:47;19.45;;;8.55;;
54977;SDS011;40873;47.522;19.106;2023-05-17T10:14:20;17.65;;;9.68;;
54977;SDS011;40873;47.522;19.106;2023-05-17T10:16:58;15.85;;;8.77;;
54977;SDS011;40873;47.522;19.106;2023-05-17T10:19:28;14.48;;;8.25;;
54977;SDS011;40873;47.522;19.106;2023-05-17T10:21:56;16.48;;;8.80;;
54977;SDS011;40873;47.522;19.106;2023-05-17T10:24:36;17.02;;;7.85;;
54977;SDS011;40873;47.522;19.106;2023-05-17T10:27:05;16.08;;;7.90;;
54977;SDS011;40873;47.522;19.106;2023-05-17T10:29:35;14.52;;;8.68;;
54977;SDS011;40873;47.522;19.106;2023-05-17T10:32:05;13.32;;;7.72;;
54977;SDS011;40873;47.522;19.106;2023-05-17T10:34:41;15.35;;;7.93;;
54977;SDS011;40873;47.522;19.106;2023-05-17T10:37:10;14.57;;;8.07;;
54977;SDS011;40873;47.522;19.106;2023-05-17T10:39:39;11.40;;;6.88;;
54977;SDS011;40873;47.522;19.106;2023-05-17T10:42:09;12.70;;;6.78;;
54977;SDS011;40873;47.522;19.106;2023-05-17T10:44:40;13.50;;;6.40;;
54977;SDS011;40873;47.522;19.106;2023-05-17T10:47:09;12.32;;;7.25;;
54977;SDS011;40873;47.522;19.106;2023-05-17T10:49:40;13.88;;;7.80;;
54977;SDS011;40873;47.522;19.106;2023-05-17T10:52:14;12.05;;;6.28;;
54977;SDS011;40873;47.522;19.106;2023-05-17T10:54:44;11.98;;;6.85;;
54977;SDS011;40873;47.522;19.106;2023-05-17T10:57:20;15.95;;;7.63;;
54977;SDS011;40873;47.522;19.106;2023-05-17T11:00:04;8.90;;;5.75;;
54977;SDS011;40873;47.522;19.106;2023-05-17T11:02:39;13.68;;;6.32;;
54977;SDS011;40873;47.522;19.106;2023-05-17T11:05:24;11.90;;;5.85;;
54977;SDS011;40873;47.522;19.106;2023-05-17T11:08:11;13.98;;;6.25;;
54977;SDS011;40873;47.522;19.106;2023-05-17T11:11:06;10.02;;;5.43;;
54977;SDS011;40873;47.522;19.106;2023-05-17T11:13:56;11.95;;;5.82;;
54977;SDS011;40873;47.522;19.106;2023-05-17T11:16:27;10.20;;;5.15;;
54977;SDS011;40873;47.522;19.106;2023-05-17T11:19:07;10.07;;;4.80;;
54977;SDS011;40873;47.522;19.106;2023-05-17T11:21:45;8.27;;;4.85;;
54977;SDS011;40873;47.522;19.106;2023-05-17T11:24:18;9.23;;;5.40;;
54977;SDS011;40873;47.522;19.106;2023-05-17T11:26:53;9.27;;;5.60;;
54977;SDS011;40873;47.522;19.106;2023-05-17T11:29:27;10.32;;;4.00;;
54977;SDS011;40873;47.522;19.106;2023-05-17T11:31:59;6.35;;;3.53;;
54977;SDS011;40873;47.522;19.106;2023-05-17T11:34:35;6.35;;;4.07;;
54977;SDS011;40873;47.522;19.106;2023-05-17T11:37:03;9.38;;;4.80;;
54977;SDS011;40873;47.522;19.106;2023-05-17T11:39:37;9.20;;;4.68;;
54977;SDS011;40873;47.522;19.106;2023-05-17T11:42:32;9.75;;;4.72;;
54977;SDS011;40873;47.522;19.106;2023-05-17T11:45:04;9.80;;;5.10;;
54977;SDS011;40873;47.522;19.106;2023-05-17T11:47:31;9.10;;;4.40;;
54977;SDS011;40873;47.522;19.106;2023-05-17T11:50:02;6.32;;;3.97;;
54977;SDS011;40873;47.522;19.106;2023-05-17T11:52:29;12.25;;;4.90;;
54977;SDS011;40873;47.522;19.106;2023-05-17T11:54:57;7.22;;;3.92;;
54977;SDS011;40873;47.522;19.106;2023-05-17T11:57:28;10.90;;;4.25;;
54977;SDS011;40873;47.522;19.106;2023-05-17T12:00:00;7.85;;;3.92;;
54977;SDS011;40873;47.522;19.106;2023-05-17T12:02:31;7.13;;;3.83;;
54977;SDS011;40873;47.522;19.106;2023-05-17T12:05:00;5.70;;;3.70;;
54977;SDS011;40873;47.522;19.106;2023-05-17T12:07:28;7.03;;;3.65;;
54977;SDS011;40873;47.522;19.106;2023-05-17T12:09:56;9.18;;;3.83;;
54977;SDS011;40873;47.522;19.106;2023-05-17T12:12:23;6.70;;;3.42;;
54977;SDS011;40873;47.522;19.106;2023-05-17T12:14:54;9.25;;;4.30;;
54977;SDS011;40873;47.522;19.106;2023-05-17T12:17:26;6.00;;;4.00;;
54977;SDS011;40873;47.522;19.106;2023-05-17T12:20:07;13.50;;;5.38;;
54977;SDS011;40873;47.522;19.106;2023-05-17T12:22:53;22.98;;;10.73;;
54977;SDS011;40873;47.522;19.106;2023-05-17T12:25:21;36.22;;;13.55;;
54977;SDS011;40873;47.522;19.106;2023-05-17T12:28:14;42.85;;;18.45;;
54977;SDS011;40873;47.522;19.106;2023-05-17T12:30:43;26.10;;;13.88;;
54977;SDS011;40873;47.522;19.106;2023-05-17T12:33:10;20.67;;;11.27;;
54977;SDS011;40873;47.522;19.106;2023-05-17T12:35:39;35.47;;;24.70;;
54977;SDS011;40873;47.522;19.106;2023-05-17T12:38:06;14.40;;;9.90;;
54977;SDS011;40873;47.522;19.106;2023-05-17T12:40:35;14.88;;;7.93;;
54977;SDS011;40873;47.522;19.106;2023-05-17T12:43:02;22.52;;;12.10;;
54977;SDS011;40873;47.522;19.106;2023-05-17T12:45:30;10.57;;;6.28;;
54977;SDS011;40873;47.522;19.106;2023-05-17T12:47:58;9.45;;;5.05;;
54977;SDS011;40873;47.522;19.106;2023-05-17T12:50:29;12.35;;;6.72;;
54977;SDS011;40873;47.522;19.106;2023-05-17T12:52:57;8.90;;;4.65;;
54977;SDS011;40873;47.522;19.106;2023-05-17T12:55:24;6.45;;;3.60;;
54977;SDS011;40873;47.522;19.106;2023-05-17T12:57:52;7.88;;;3.50;;
54977;SDS011;40873;47.522;19.106;2023-05-17T13:00:20;9.82;;;3.25;;
54977;SDS011;40873;47.522;19.106;2023-05-17T13:02:47;6.30;;;3.08;;
54977;SDS011;40873;47.522;19.106;2023-05-17T13:05:18;4.55;;;2.63;;
54977;SDS011;40873;47.522;19.106;2023-05-17T13:07:48;3.45;;;2.47;;
54977;SDS011;40873;47.522;19.106;2023-05-17T13:10:22;6.00;;;2.60;;
54977;SDS011;40873;47.522;19.106;2023-05-17T13:15:29;7.07;;;2.80;;
54977;SDS011;40873;47.522;19.106;2023-05-17T13:17:57;4.72;;;2.90;;
54977;SDS011;40873;47.522;19.106;2023-05-17T13:20:26;7.15;;;2.92;;
54977;SDS011;40873;47.522;19.106;2023-05-17T13:22:56;3.13;;;2.13;;
54977;SDS011;40873;47.522;19.106;2023-05-17T13:25:23;4.32;;;2.55;;
54977;SDS011;40873;47.522;19.106;2023-05-17T13:27:53;5.25;;;2.20;;
54977;SDS011;40873;47.522;19.106;2023-05-17T13:30:21;3.92;;;2.20;;
54977;SDS011;40873;47.522;19.106;2023-05-17T13:32:48;4.68;;;2.22;;
54977;SDS011;40873;47.522;19.106;2023-05-17T13:35:16;5.40;;;2.63;;
54977;SDS011;40873;47.522;19.106;2023-05-17T13:37:42;4.90;;;2.33;;
54977;SDS011;40873;47.522;19.106;2023-05-17T13:40:10;4.35;;;2.35;;
54977;SDS011;40873;47.522;19.106;2023-05-17T13:42:37;7.80;;;2.45;;
54977;SDS011;40873;47.522;19.106;2023-05-17T13:45:04;4.85;;;1.92;;
54977;SDS011;40873;47.522;19.106;2023-05-17T13:47:34;3.13;;;1.98;;
54977;SDS011;40873;47.522;19.106;2023-05-17T13:50:02;4.63;;;2.03;;
54977;SDS011;40873;47.522;19.106;2023-05-17T13:52:32;5.55;;;2.30;;
54977;SDS011;40873;47.522;19.106;2023-05-17T13:54:59;4.07;;;2.22;;
54977;SDS011;40873;47.522;19.106;2023-05-17T13:57:26;4.30;;;2.00;;
54977;SDS011;40873;47.522;19.106;2023-05-17T13:59:56;5.82;;;2.08;;
54977;SDS011;40873;47.522;19.106;2023-05-17T14:02:22;5.03;;;2.10;;
54977;SDS011;40873;47.522;19.106;2023-05-17T14:04:50;7.68;;;3.17;;
54977;SDS011;40873;47.522;19.106;2023-05-17T14:07:17;3.05;;;1.88;;
54977;SDS011;40873;47.522;19.106;2023-05-17T14:09:44;4.32;;;1.92;;
54977;SDS011;40873;47.522;19.106;2023-05-17T14:12:12;4.22;;;2.10;;
54977;SDS011;40873;47.522;19.106;2023-05-17T14:14:39;3.70;;;2.45;;
54977;SDS011;40873;47.522;19.106;2023-05-17T14:17:06;5.07;;;2.30;;
54977;SDS011;40873;47.522;19.106;2023-05-17T14:19:35;7.35;;;2.33;;
54977;SDS011;40873;47.522;19.106;2023-05-17T14:22:05;3.70;;;2.50;;
54977;SDS011;40873;47.522;19.106;2023-05-17T14:24:34;6.65;;;2.40;;
54977;SDS011;40873;47.522;19.106;2023-05-17T14:27:01;4.03;;;2.33;;
54977;SDS011;40873;47.522;19.106;2023-05-17T14:29:31;4.40;;;2.17;;
54977;SDS011;40873;47.522;19.106;2023-05-17T14:31:58;7.40;;;2.28;;
54977;SDS011;40873;47.522;19.106;2023-05-17T14:34:25;3.08;;;2.15;;
54977;SDS011;40873;47.522;19.106;2023-05-17T14:36:55;6.57;;;2.17;;
54977;SDS011;40873;47.522;19.106;2023-05-17T14:39:22;3.90;;;2.00;;
54977;SDS011;40873;47.522;19.106;2023-05-17T14:41:53;2.70;;;1.80;;
54977;SDS011;40873;47.522;19.106;2023-05-17T14:44:20;3.53;;;2.00;;
54977;SDS011;40873;47.522;19.106;2023-05-17T14:46:47;5.65;;;2.10;;
54977;SDS011;40873;47.522;19.106;2023-05-17T14:49:14;6.00;;;2.13;;
54977;SDS011;40873;47.522;19.106;2023-05-17T14:51:41;6.30;;;2.05;;
54977;SDS011;40873;47.522;19.106;2023-05-17T14:54:09;3.58;;;1.50;;
54977;SDS011;40873;47.522;19.106;2023-05-17T14:56:38;4.70;;;1.58;;